Time;durP1;ratioP1;P1;durP2;ratioP2;P2;SDS_P1;SDS_P2;PMS_P1;PMS_P2;Temp;Humidity;BMP_temperature;BMP_pressure;BME280_temperature;BME280_humidity;BME280_pressure;Samples;Min_cycle;Max_cycle;Signal;HPM_P1;HPM_P2
2023/04/18 00:02:16;;;;;;;19.48;11.00;;;;;;;;;;5037727;28;20116;-81
2023/04/18 00:04:42;;;;;;;17.95;10.75;;;;;;;;;;5039225;28;20029;-81
2023/04/18 00:07:07;;;;;;;18.20;10.80;;;;;;;;;;5038331;28;20033;-81
2023/04/18 00:09:34;;;;;;;18.08;10.27;;;;;;;;;;5037905;28;20388;-81
2023/04/18 00:12:01;;;;;;;16.75;8.90;;;;;;;;;;5038194;28;20076;-81
2023/04/18 00:14:28;;;;;;;17.13;10.20;;;;;;;;;;5038180;28;20021;-81
2023/04/18 00:16:54;;;;;;;18.88;10.55;;;;;;;;;;5038093;28;20021;-82
2023/04/18 00:19:21;;;;;;;19.45;11.27;;;;;;;;;;5023007;28;20101;-81
2023/04/18 00:21:48;;;;;;;13.65;8.77;;;;;;;;;;5028196;28;20072;-81
2023/04/18 00:24:14;;;;;;;18.10;10.52;;;;;;;;;;5022087;28;20017;-81
2023/04/18 00:26:40;;;;;;;18.13;10.90;;;;;;;;;;5029446;28;20136;-81
2023/04/18 00:29:06;;;;;;;16.30;9.45;;;;;;;;;;5037548;28;20049;-81
2023/04/18 00:31:33;;;;;;;16.17;9.85;;;;;;;;;;5037720;28;20073;-82
2023/04/18 00:33:59;;;;;;;17.55;11.52;;;;;;;;;;5036030;28;20103;-81
2023/04/18 00:36:26;;;;;;;18.17;9.20;;;;;;;;;;5035991;28;20030;-81
2023/04/18 00:38:52;;;;;;;17.73;10.20;;;;;;;;;;5036160;28;20025;-81
2023/04/18 00:41:19;;;;;;;10.32;6.60;;;;;;;;;;5035689;28;20088;-81
2023/04/18 00:43:45;;;;;;;18.10;10.18;;;;;;;;;;5020137;28;20025;-81
2023/04/18 00:46:11;;;;;;;19.27;10.38;;;;;;;;;;5036070;28;20032;-81
2023/04/18 00:48:37;;;;;;;15.52;10.20;;;;;;;;;;5035829;28;20026;-81
2023/04/18 00:51:04;;;;;;;16.55;9.27;;;;;;;;;;5036054;28;20029;-81
2023/04/18 00:53:30;;;;;;;15.95;10.20;;;;;;;;;;5035797;28;20043;-81
2023/04/18 00:55:56;;;;;;;15.55;9.27;;;;;;;;;;5034091;28;20086;-81
2023/04/18 00:58:46;;;;;;;19.63;10.65;;;;;;;;;;5035468;28;20061;-81
2023/04/18 01:01:12;;;;;;;16.77;9.52;;;;;;;;;;5025698;28;20083;-81
2023/04/18 01:03:39;;;;;;;17.92;8.93;;;;;;;;;;5035256;28;20026;-81
2023/04/18 01:09:10;;;;;;;13.38;8.35;;;;;;;;;;5024870;28;20028;-81
2023/04/18 01:11:36;;;;;;;18.75;11.10;;;;;;;;;;5035260;28;20033;-81
2023/04/18 01:14:02;;;;;;;20.38;12.55;;;;;;;;;;5035386;28;20472;-81
2023/04/18 01:16:31;;;;;;;12.27;6.20;;;;;;;;;;5031297;28;20025;-81
2023/04/18 01:18:57;;;;;;;20.65;11.43;;;;;;;;;;5034535;28;20025;-81
2023/04/18 01:21:23;;;;;;;16.83;9.30;;;;;;;;;;5051156;28;20729;-81
2023/04/18 01:23:50;;;;;;;18.30;11.65;;;;;;;;;;5035921;28;20034;-81
2023/04/18 01:26:16;;;;;;;15.27;9.40;;;;;;;;;;5033785;28;20060;-81
2023/04/18 01:28:42;;;;;;;19.00;9.43;;;;;;;;;;5036102;28;20025;-81
2023/04/18 01:31:08;;;;;;;15.93;9.60;;;;;;;;;;5035718;28;20095;-81
2023/04/18 01:33:34;;;;;;;12.68;7.97;;;;;;;;;;5029326;28;20112;-81
2023/04/18 01:36:00;;;;;;;15.18;8.02;;;;;;;;;;5034274;28;20468;-81
2023/04/18 01:38:26;;;;;;;14.27;7.80;;;;;;;;;;5035475;28;20079;-81
2023/04/18 01:41:01;;;;;;;10.82;7.55;;;;;;;;;;5020101;28;20029;-81
2023/04/18 01:43:27;;;;;;;13.88;8.20;;;;;;;;;;5033992;28;20116;-81
2023/04/18 01:45:52;;;;;;;15.60;7.90;;;;;;;;;;5034111;28;20076;-81
2023/04/18 01:48:18;;;;;;;10.57;7.45;;;;;;;;;;5035052;28;20029;-81
2023/04/18 01:50:44;;;;;;;14.88;8.20;;;;;;;;;;5034606;28;20021;-81
2023/04/18 01:53:10;;;;;;;19.13;8.70;;;;;;;;;;5034541;28;20032;-81
2023/04/18 01:55:36;;;;;;;12.15;7.82;;;;;;;;;;5034358;28;20392;-81
2023/04/18 01:58:02;;;;;;;11.45;6.50;;;;;;;;;;5034717;28;20105;-81
2023/04/18 02:00:28;;;;;;;12.77;8.50;;;;;;;;;;5034591;28;20025;-81
2023/04/18 02:02:54;;;;;;;14.38;8.60;;;;;;;;;;5034610;28;20033;-81
2023/04/18 02:05:20;;;;;;;11.02;7.50;;;;;;;;;;5032775;28;20037;-81
2023/04/18 02:07:48;;;;;;;11.68;8.07;;;;;;;;;;5033318;28;20017;-81
2023/04/18 02:10:15;;;;;;;15.40;8.02;;;;;;;;;;5035489;28;20026;-81
2023/04/18 02:12:45;;;;;;;11.73;6.93;;;;;;;;;;5034897;28;20026;-81
2023/04/18 02:15:11;;;;;;;13.70;8.80;;;;;;;;;;5034394;28;20026;-81
2023/04/18 02:17:37;;;;;;;13.40;7.95;;;;;;;;;;5034551;28;20392;-81
2023/04/18 02:20:33;;;;;;;13.18;8.55;;;;;;;;;;5033539;28;20053;-80
2023/04/18 02:23:23;;;;;;;13.02;7.57;;;;;;;;;;5014965;28;20538;-80
2023/04/18 02:25:49;;;;;;;12.05;6.03;;;;;;;;;;5029544;28;20029;-80
2023/04/18 02:28:15;;;;;;;11.15;7.35;;;;;;;;;;5032766;28;20040;-81
2023/04/18 02:30:41;;;;;;;12.18;7.30;;;;;;;;;;5032853;28;20021;-81
2023/04/18 02:33:07;;;;;;;13.57;8.15;;;;;;;;;;5034136;28;20113;-80
2023/04/18 02:35:35;;;;;;;9.20;6.80;;;;;;;;;;5019999;28;20030;-81
2023/04/18 02:38:01;;;;;;;15.52;7.65;;;;;;;;;;5030395;28;20667;-80
2023/04/18 02:40:27;;;;;;;9.10;6.15;;;;;;;;;;5038193;28;20022;-81
2023/04/18 02:42:52;;;;;;;9.65;5.57;;;;;;;;;;5037956;28;20436;-81
2023/04/18 02:45:18;;;;;;;11.65;6.63;;;;;;;;;;5030965;28;20109;-81
2023/04/18 02:47:44;;;;;;;13.18;7.10;;;;;;;;;;5027218;28;20048;-81
2023/04/18 02:50:11;;;;;;;7.85;5.47;;;;;;;;;;5037938;28;20029;-80
2023/04/18 02:52:36;;;;;;;7.78;5.38;;;;;;;;;;5036941;28;20022;-80
2023/04/18 02:55:02;;;;;;;9.50;5.93;;;;;;;;;;5037856;28;20026;-80
2023/04/18 02:57:28;;;;;;;5.97;4.45;;;;;;;;;;5038056;28;20388;-81
2023/04/18 02:59:54;;;;;;;7.22;4.15;;;;;;;;;;5037852;28;20657;-80
2023/04/18 03:02:20;;;;;;;10.23;6.22;;;;;;;;;;5037512;28;20057;-81
2023/04/18 03:05:02;;;;;;;7.30;4.40;;;;;;;;;;5037750;28;20018;-81
2023/04/18 03:07:29;;;;;;;9.63;5.35;;;;;;;;;;5037682;28;20132;-81
2023/04/18 03:09:55;;;;;;;7.70;5.00;;;;;;;;;;5033168;28;20033;-81
2023/04/18 03:12:21;;;;;;;7.88;4.47;;;;;;;;;;5017962;28;20026;-81
2023/04/18 03:14:47;;;;;;;6.53;4.75;;;;;;;;;;5018804;28;20026;-81
2023/04/18 03:17:13;;;;;;;7.25;3.85;;;;;;;;;;5037458;28;20033;-80
2023/04/18 03:19:39;;;;;;;7.88;5.20;;;;;;;;;;5037231;28;20022;-81
2023/04/18 03:22:06;;;;;;;7.57;4.50;;;;;;;;;;5037261;28;20466;-81
2023/04/18 03:24:32;;;;;;;5.03;4.03;;;;;;;;;;5019510;28;20022;-81
2023/04/18 03:26:59;;;;;;;5.70;3.97;;;;;;;;;;5017417;28;20035;-81
2023/04/18 03:29:25;;;;;;;5.22;3.78;;;;;;;;;;5017631;28;20025;-81
2023/04/18 03:31:51;;;;;;;4.95;3.25;;;;;;;;;;5017349;28;20033;-81
2023/04/18 03:34:17;;;;;;;5.80;4.03;;;;;;;;;;5015980;28;20022;-81
2023/04/18 03:36:43;;;;;;;6.95;3.85;;;;;;;;;;5028663;28;20116;-81
2023/04/18 03:39:09;;;;;;;8.55;5.28;;;;;;;;;;5037163;28;20358;-81
2023/04/18 03:41:35;;;;;;;5.80;3.38;;;;;;;;;;5036693;28;20492;-81
2023/04/18 03:44:49;;;;;;;6.63;4.25;;;;;;;;;;5037171;28;20028;-81
2023/04/18 03:47:48;;;;;;;6.60;4.38;;;;;;;;;;5016991;28;20042;-81
2023/04/18 03:50:16;;;;;;;7.05;4.43;;;;;;;;;;5033013;28;20033;-81
2023/04/18 03:52:42;;;;;;;5.50;3.85;;;;;;;;;;5043135;28;20030;-81
2023/04/18 03:55:08;;;;;;;6.05;3.85;;;;;;;;;;5045874;28;20469;-81
2023/04/18 03:57:34;;;;;;;4.97;3.55;;;;;;;;;;5048232;28;20072;-81
2023/04/18 04:00:00;;;;;;;6.72;3.80;;;;;;;;;;5047570;28;20026;-81
2023/04/18 04:02:26;;;;;;;8.15;4.72;;;;;;;;;;5042852;28;20033;-81
2023/04/18 04:04:52;;;;;;;6.40;4.13;;;;;;;;;;5036497;28;20026;-81
2023/04/18 04:07:18;;;;;;;7.57;3.97;;;;;;;;;;5027281;28;20029;-81
2023/04/18 04:09:44;;;;;;;5.57;3.83;;;;;;;;;;5016842;28;20030;-81
2023/04/18 04:12:10;;;;;;;8.90;5.38;;;;;;;;;;5026869;28;20093;-81
2023/04/18 04:14:36;;;;;;;9.80;5.90;;;;;;;;;;5036403;28;20036;-81
2023/04/18 04:17:02;;;;;;;10.57;5.53;;;;;;;;;;5036467;28;20388;-81
2023/04/18 04:19:28;;;;;;;9.63;5.80;;;;;;;;;;5038579;28;20107;-81
2023/04/18 04:21:54;;;;;;;9.57;5.85;;;;;;;;;;5036608;28;20080;-81
2023/04/18 04:24:21;;;;;;;8.05;4.82;;;;;;;;;;5019674;28;20026;-81
2023/04/18 04:26:49;;;;;;;11.15;5.97;;;;;;;;;;5037025;28;20033;-81
2023/04/18 04:29:15;;;;;;;7.93;4.60;;;;;;;;;;5038353;28;20468;-81
2023/04/18 04:31:41;;;;;;;7.30;3.72;;;;;;;;;;5038856;28;20479;-81
2023/04/18 04:34:07;;;;;;;8.65;5.00;;;;;;;;;;5035739;28;20388;-80
2023/04/18 04:36:33;;;;;;;7.82;4.85;;;;;;;;;;5035101;28;20029;-81
2023/04/18 04:39:03;;;;;;;6.07;4.25;;;;;;;;;;5033955;28;20021;-82
2023/04/18 04:41:29;;;;;;;8.98;4.25;;;;;;;;;;5035512;28;20164;-82
2023/04/18 04:43:55;;;;;;;7.07;4.35;;;;;;;;;;5022703;28;20099;-82
2023/04/18 04:46:21;;;;;;;9.02;5.65;;;;;;;;;;5015813;28;20508;-82
2023/04/18 04:48:48;;;;;;;7.70;5.25;;;;;;;;;;5032444;28;20068;-83
2023/04/18 04:51:14;;;;;;;8.82;5.22;;;;;;;;;;5026249;28;20026;-83
2023/04/18 04:53:40;;;;;;;11.00;6.25;;;;;;;;;;5035326;28;20104;-82
2023/04/18 04:56:06;;;;;;;9.98;5.43;;;;;;;;;;5035152;28;20065;-82
2023/04/18 04:58:32;;;;;;;7.15;4.53;;;;;;;;;;5033898;28;20026;-82
2023/04/18 05:00:59;;;;;;;10.80;6.10;;;;;;;;;;5033711;28;20029;-82
2023/04/18 05:03:25;;;;;;;8.80;6.05;;;;;;;;;;5035397;28;20021;-82
2023/04/18 05:05:55;;;;;;;9.30;6.15;;;;;;;;;;5035002;28;20495;-82
2023/04/18 05:08:49;;;;;;;11.85;4.63;;;;;;;;;;5035154;28;20060;-83
2023/04/18 05:11:16;;;;;;;10.77;5.97;;;;;;;;;;5013932;28;20048;-82
2023/04/18 05:13:42;;;;;;;6.68;5.00;;;;;;;;;;5014835;28;20057;-82
2023/04/18 05:16:08;;;;;;;10.55;5.50;;;;;;;;;;5018893;28;20029;-80
2023/04/18 05:18:37;;;;;;;10.07;4.95;;;;;;;;;;5034720;28;20021;-80
2023/04/18 05:21:04;;;;;;;11.47;6.10;;;;;;;;;;5034935;28;20018;-80
2023/04/18 05:23:30;;;;;;;13.82;6.03;;;;;;;;;;5017885;28;20109;-80
2023/04/18 05:25:56;;;;;;;8.88;5.30;;;;;;;;;;5015520;28;20120;-80
2023/04/18 05:28:25;;;;;;;9.77;4.95;;;;;;;;;;5034457;28;20025;-80
2023/04/18 05:30:51;;;;;;;6.15;3.85;;;;;;;;;;5029446;28;20033;-80
2023/04/18 05:33:17;;;;;;;9.38;5.00;;;;;;;;;;5015292;28;20026;-80
2023/04/18 05:35:43;;;;;;;7.18;4.50;;;;;;;;;;5015706;28;20676;-80
2023/04/18 05:38:09;;;;;;;8.45;4.38;;;;;;;;;;5015151;28;20107;-80
2023/04/18 05:40:35;;;;;;;6.75;4.38;;;;;;;;;;5014684;28;20029;-80
2023/04/18 05:43:01;;;;;;;9.80;5.63;;;;;;;;;;5013839;28;20144;-80
2023/04/18 05:45:27;;;;;;;6.00;5.03;;;;;;;;;;5014896;28;20044;-80
2023/04/18 05:47:53;;;;;;;8.98;5.10;;;;;;;;;;5014724;28;20053;-80
2023/04/18 05:50:19;;;;;;;8.43;4.90;;;;;;;;;;5029923;28;20033;-80
2023/04/18 05:58:58;;;;;;;13.80;7.32;;;;;;;;;;5034691;28;20483;-80
2023/04/18 06:01:24;;;;;;;9.23;6.28;;;;;;;;;;5014380;28;20045;-80
2023/04/18 06:03:50;;;;;;;11.95;5.85;;;;;;;;;;5014267;28;20030;-80
2023/04/18 06:06:16;;;;;;;11.45;6.55;;;;;;;;;;5014266;28;20037;-80
2023/04/18 06:08:42;;;;;;;11.73;6.07;;;;;;;;;;5024462;28;20506;-81
2023/04/18 06:11:08;;;;;;;12.52;7.10;;;;;;;;;;5033867;28;20017;-80
2023/04/18 06:13:34;;;;;;;12.98;7.47;;;;;;;;;;5033238;28;20095;-80
2023/04/18 06:16:00;;;;;;;11.35;7.63;;;;;;;;;;5034260;28;20468;-80
2023/04/18 06:18:26;;;;;;;12.50;7.88;;;;;;;;;;5034083;28;20025;-80
2023/04/18 06:20:53;;;;;;;12.68;7.18;;;;;;;;;;5033648;28;20033;-80
2023/04/18 06:23:19;;;;;;;10.73;5.80;;;;;;;;;;5033787;28;20030;-80
2023/04/18 06:25:45;;;;;;;13.93;6.78;;;;;;;;;;5023274;28;20084;-80
2023/04/18 06:28:11;;;;;;;13.60;8.13;;;;;;;;;;5015451;28;20109;-80
2023/04/18 06:30:37;;;;;;;9.20;6.00;;;;;;;;;;5031823;28;20072;-80
2023/04/18 06:33:03;;;;;;;9.68;5.90;;;;;;;;;;5033407;28;20083;-80
2023/04/18 06:35:48;;;;;;;13.27;7.63;;;;;;;;;;5017535;28;20029;-83
2023/04/18 06:38:14;;;;;;;15.60;7.63;;;;;;;;;;5014062;28;20026;-83
2023/04/18 06:40:40;;;;;;;9.80;6.68;;;;;;;;;;5014069;28;20026;-83
2023/04/18 06:43:06;;;;;;;11.38;6.60;;;;;;;;;;5028396;28;20063;-81
2023/04/18 06:45:32;;;;;;;12.57;7.65;;;;;;;;;;5033600;28;20112;-80
2023/04/18 06:47:58;;;;;;;9.82;6.10;;;;;;;;;;5033868;28;20033;-80
2023/04/18 06:50:28;;;;;;;7.72;5.53;;;;;;;;;;5033715;28;20524;-81
2023/04/18 06:52:54;;;;;;;13.23;7.07;;;;;;;;;;5033664;28;20029;-80
2023/04/18 06:55:20;;;;;;;11.23;6.53;;;;;;;;;;5033742;28;20025;-81
2023/04/18 06:57:47;;;;;;;9.20;6.45;;;;;;;;;;5033489;28;20029;-81
2023/04/18 07:00:13;;;;;;;11.98;7.85;;;;;;;;;;5033348;28;20544;-80
2023/04/18 07:02:40;;;;;;;11.23;6.93;;;;;;;;;;5032320;28;20025;-80
2023/04/18 07:05:07;;;;;;;9.68;6.55;;;;;;;;;;5033589;28;20095;-80
2023/04/18 07:07:34;;;;;;;9.98;6.13;;;;;;;;;;5022597;28;20030;-81
2023/04/18 07:10:00;;;;;;;8.05;5.43;;;;;;;;;;5028644;28;20057;-81
2023/04/18 07:12:32;;;;;;;8.35;5.78;;;;;;;;;;5029057;28;20475;-81
2023/04/18 07:15:03;;;;;;;9.93;6.75;;;;;;;;;;5029820;28;20122;-81
2023/04/18 07:17:29;;;;;;;10.52;6.80;;;;;;;;;;5030690;28;20073;-81
2023/04/18 07:20:26;;;;;;;9.90;6.07;;;;;;;;;;5029315;28;20022;-82
2023/04/18 07:22:55;;;;;;;8.30;5.72;;;;;;;;;;5023206;28;20044;-82
2023/04/18 07:25:25;;;;;;;8.23;5.50;;;;;;;;;;5036452;28;20095;-82
2023/04/18 07:27:53;;;;;;;13.23;6.57;;;;;;;;;;5037920;28;20045;-82
2023/04/18 07:30:47;;;;;;;7.40;6.05;;;;;;;;;;5038299;28;20021;-83
2023/04/18 07:33:19;;;;;;;8.63;5.50;;;;;;;;;;5026661;28;20034;-82
2023/04/18 07:36:11;;;;;;;11.40;5.07;;;;;;;;;;5018438;28;20022;-82
2023/04/18 07:38:52;;;;;;;6.80;5.00;;;;;;;;;;5021260;28;20033;-82
2023/04/18 07:44:53;;;;;;;8.23;6.43;;;;;;;;;;5035061;28;20041;-82
2023/04/18 07:47:27;;;;;;;6.25;5.18;;;;;;;;;;5025127;28;20041;-82
2023/04/18 07:50:00;;;;;;;9.75;7.00;;;;;;;;;;5036544;28;20482;-82
2023/04/18 07:52:32;;;;;;;8.77;6.07;;;;;;;;;;5020061;28;20032;-83
2023/04/18 07:55:17;;;;;;;7.90;5.68;;;;;;;;;;5031522;28;20041;-82
2023/04/18 07:57:49;;;;;;;8.98;5.25;;;;;;;;;;5035801;28;20025;-83
2023/04/18 08:00:18;;;;;;;8.00;5.35;;;;;;;;;;5035434;28;20028;-83
2023/04/18 08:03:02;;;;;;;7.28;5.63;;;;;;;;;;5026376;28;20041;-83
2023/04/18 08:05:38;;;;;;;6.97;5.82;;;;;;;;;;5033072;28;20045;-82
2023/04/18 08:08:10;;;;;;;12.05;6.82;;;;;;;;;;5036187;28;20037;-82
2023/04/18 08:10:37;;;;;;;9.18;6.18;;;;;;;;;;5036321;28;20037;-83
2023/04/18 08:13:05;;;;;;;7.63;6.35;;;;;;;;;;5034710;28;20040;-82
2023/04/18 08:15:32;;;;;;;8.82;6.35;;;;;;;;;;5019185;28;20037;-82
2023/04/18 08:17:58;;;;;;;9.80;6.85;;;;;;;;;;5027761;28;20034;-82
2023/04/18 08:20:37;;;;;;;8.30;6.22;;;;;;;;;;5014830;28;20528;-82
2023/04/18 08:23:07;;;;;;;8.20;5.95;;;;;;;;;;5016188;28;20036;-82
2023/04/18 08:25:35;;;;;;;10.20;6.28;;;;;;;;;;5023237;28;20488;-83
2023/04/18 08:28:01;;;;;;;8.27;6.22;;;;;;;;;;5034671;28;20028;-83
2023/04/18 08:30:27;;;;;;;8.85;6.55;;;;;;;;;;5035553;28;20076;-82
2023/04/18 08:32:53;;;;;;;10.45;7.00;;;;;;;;;;5034509;28;20084;-82
2023/04/18 08:35:19;;;;;;;12.20;6.95;;;;;;;;;;5035464;28;20026;-83
2023/04/18 08:37:48;;;;;;;7.28;6.25;;;;;;;;;;5035708;28;20045;-83
2023/04/18 08:40:15;;;;;;;7.60;4.90;;;;;;;;;;5035250;28;20444;-82
2023/04/18 08:42:45;;;;;;;9.00;6.75;;;;;;;;;;5033104;28;20055;-82
2023/04/18 08:45:17;;;;;;;9.25;6.97;;;;;;;;;;5034275;28;20693;-82
2023/04/18 08:57:03;;;;;;;9.38;6.57;;;;;;;;;;5015650;28;20038;-82
2023/04/18 08:59:31;;;;;;;9.10;6.70;;;;;;;;;;5015819;28;20073;-82
2023/04/18 09:01:58;;;;;;;9.95;6.25;;;;;;;;;;5022974;28;20580;-82
2023/04/18 09:04:36;;;;;;;9.07;6.90;;;;;;;;;;5034867;28;20380;-82
2023/04/18 09:07:03;;;;;;;6.80;5.32;;;;;;;;;;5038933;28;20044;-83
2023/04/18 09:09:49;;;;;;;8.48;6.72;;;;;;;;;;5038430;28;20032;-83
2023/04/18 09:12:17;;;;;;;7.47;6.20;;;;;;;;;;5038925;28;20055;-83
2023/04/18 09:14:44;;;;;;;9.18;6.22;;;;;;;;;;5040312;28;20060;-83
2023/04/18 09:17:13;;;;;;;9.27;6.57;;;;;;;;;;5039693;28;20028;-83
2023/04/18 09:19:47;;;;;;;7.07;5.55;;;;;;;;;;5038088;28;20459;-83
2023/04/18 09:22:15;;;;;;;8.82;5.95;;;;;;;;;;5034673;28;20096;-83
2023/04/18 09:24:51;;;;;;;8.15;6.15;;;;;;;;;;5039101;28;20496;-83
2023/04/18 09:27:17;;;;;;;7.72;5.38;;;;;;;;;;5038990;28;20067;-83
2023/04/18 09:29:48;;;;;;;8.10;5.47;;;;;;;;;;5038976;28;20032;-83
2023/04/18 09:32:27;;;;;;;8.70;6.30;;;;;;;;;;5036693;28;20030;-83
2023/04/18 09:35:00;;;;;;;9.15;6.00;;;;;;;;;;5037701;28;20089;-83
2023/04/18 09:37:27;;;;;;;7.90;6.22;;;;;;;;;;5019808;28;20552;-83
2023/04/18 09:39:53;;;;;;;7.65;6.68;;;;;;;;;;5038227;28;20461;-83
2023/04/18 09:42:19;;;;;;;7.47;6.22;;;;;;;;;;5035888;28;20114;-83
2023/04/18 09:45:06;;;;;;;7.82;5.72;;;;;;;;;;5037645;28;20029;-83
2023/04/18 09:47:36;;;;;;;9.43;6.53;;;;;;;;;;5034109;28;20040;-83
2023/04/18 09:50:05;;;;;;;10.05;7.00;;;;;;;;;;5030467;28;20029;-83
2023/04/18 09:52:33;;;;;;;9.73;7.20;;;;;;;;;;5028395;28;20025;-83
2023/04/18 09:55:01;;;;;;;12.50;7.57;;;;;;;;;;5033688;28;20079;-82
2023/04/18 09:57:27;;;;;;;7.28;5.93;;;;;;;;;;5035518;28;20032;-82
2023/04/18 10:00:09;;;;;;;7.65;5.50;;;;;;;;;;5037388;28;20024;-83
2023/04/18 10:02:44;;;;;;;7.65;5.97;;;;;;;;;;5036776;28;20049;-83
2023/04/18 10:05:12;;;;;;;8.40;6.70;;;;;;;;;;5036561;28;20072;-82
2023/04/18 10:07:38;;;;;;;9.20;7.22;;;;;;;;;;5033286;28;20498;-82
2023/04/18 10:10:07;;;;;;;12.80;7.47;;;;;;;;;;5039276;28;20127;-82
2023/04/18 10:15:53;;;;;;;7.68;5.97;;;;;;;;;;5014666;28;20283;-82
2023/04/18 10:18:22;;;;;;;12.13;7.88;;;;;;;;;;5015885;28;20026;-82
2023/04/18 10:20:48;;;;;;;11.57;6.28;;;;;;;;;;5014433;28;20477;-82
2023/04/18 10:23:33;;;;;;;9.60;7.20;;;;;;;;;;5012777;28;20033;-82
2023/04/18 10:25:59;;;;;;;7.88;5.38;;;;;;;;;;5019013;28;20139;-82
2023/04/18 10:28:26;;;;;;;8.73;7.13;;;;;;;;;;5032949;28;20439;-82
2023/04/18 10:31:04;;;;;;;10.48;6.30;;;;;;;;;;5032794;28;20022;-82
2023/04/18 10:33:34;;;;;;;9.88;5.80;;;;;;;;;;5034002;28;20026;-82
2023/04/18 10:36:00;;;;;;;9.65;7.07;;;;;;;;;;5034800;28;20030;-82
2023/04/18 10:38:27;;;;;;;9.35;7.28;;;;;;;;;;5017470;28;20030;-82
2023/04/18 10:40:53;;;;;;;6.30;5.10;;;;;;;;;;5013890;28;20416;-82
2023/04/18 10:43:20;;;;;;;8.13;5.70;;;;;;;;;;5011209;28;20463;-82
2023/04/18 10:46:07;;;;;;;7.55;5.32;;;;;;;;;;5012576;28;20022;-82
2023/04/18 10:48:34;;;;;;;8.73;4.93;;;;;;;;;;5019040;28;20033;-82
2023/04/18 10:51:13;;;;;;;6.90;4.90;;;;;;;;;;5033707;28;20049;-82
2023/04/18 10:53:43;;;;;;;5.78;4.47;;;;;;;;;;5033088;28;20025;-82
2023/04/18 10:56:11;;;;;;;;;;;;;;;;;;5035229;28;20022;-82
2023/04/18 10:58:40;;;;;;;5.47;4.38;;;;;;;;;;5024884;28;19905;-82
2023/04/18 11:01:06;;;;;;;7.07;5.68;;;;;;;;;;5019508;28;20025;-82
2023/04/18 11:03:33;;;;;;;8.73;4.88;;;;;;;;;;5018822;28;20037;-82
2023/04/18 11:06:02;;;;;;;6.35;4.40;;;;;;;;;;5017824;28;20514;-82
2023/04/18 11:08:29;;;;;;;5.25;3.90;;;;;;;;;;5024084;28;20022;-82
2023/04/18 11:10:59;;;;;;;6.20;4.30;;;;;;;;;;5040688;28;20041;-82
2023/04/18 11:13:25;;;;;;;7.00;4.13;;;;;;;;;;5038860;28;20053;-83
2023/04/18 11:15:50;;;;;;;9.15;5.18;;;;;;;;;;5037636;28;20065;-82
2023/04/18 11:18:16;;;;;;;7.30;5.15;;;;;;;;;;5038191;28;20029;-82
2023/04/18 11:20:50;;;;;;;7.72;6.05;;;;;;;;;;5036675;28;20017;-82
2023/04/18 11:23:18;;;;;;;7.25;5.45;;;;;;;;;;5036475;28;20029;-82
2023/04/18 11:25:45;;;;;;;5.80;4.22;;;;;;;;;;5038267;28;20369;-82
2023/04/18 11:28:12;;;;;;;7.13;4.57;;;;;;;;;;5037276;28;20030;-82
2023/04/18 11:30:41;;;;;;;7.43;3.58;;;;;;;;;;5037581;28;20017;-81
2023/04/18 11:33:07;;;;;;;7.60;4.30;;;;;;;;;;5038204;28;20033;-81
2023/04/18 11:35:37;;;;;;;5.88;3.85;;;;;;;;;;5027485;28;20059;-81
2023/04/18 11:38:03;;;;;;;8.07;4.70;;;;;;;;;;5019312;28;20014;-81
2023/04/18 11:40:29;;;;;;;7.03;4.72;;;;;;;;;;5039257;28;20159;-81
2023/04/18 11:43:01;;;;;;;4.55;3.47;;;;;;;;;;5024456;28;20078;-81
2023/04/18 11:45:27;;;;;;;5.20;3.53;;;;;;;;;;5021093;28;20479;-81
2023/04/18 11:47:57;;;;;;;6.32;4.53;;;;;;;;;;5037192;28;20030;-81
2023/04/18 11:50:43;;;;;;;5.85;4.22;;;;;;;;;;5036402;28;20021;-81
2023/04/18 11:53:09;;;;;;;7.13;4.70;;;;;;;;;;5037007;28;20100;-80
2023/04/18 11:55:35;;;;;;;5.85;4.80;;;;;;;;;;5036838;28;20087;-80
2023/04/18 11:58:02;;;;;;;5.45;3.47;;;;;;;;;;5036645;28;20029;-80
2023/04/18 12:00:33;;;;;;;7.85;4.55;;;;;;;;;;5037022;28;20064;-80
2023/04/18 12:03:00;;;;;;;4.53;3.78;;;;;;;;;;5036526;28;20017;-81
2023/04/18 12:05:44;;;;;;;5.30;4.35;;;;;;;;;;5036333;28;20032;-80
2023/04/18 12:08:12;;;;;;;5.43;4.50;;;;;;;;;;5036010;28;20045;-80
2023/04/18 12:10:45;;;;;;;7.18;5.45;;;;;;;;;;5034069;28;20041;-81
2023/04/18 12:13:11;;;;;;;6.35;4.50;;;;;;;;;;5036992;28;20025;-81
2023/04/18 12:15:38;;;;;;;7.15;4.70;;;;;;;;;;5035924;28;20037;-81
2023/04/18 12:18:07;;;;;;;6.63;4.70;;;;;;;;;;5036230;28;20021;-81
2023/04/18 12:20:34;;;;;;;5.80;3.97;;;;;;;;;;5036377;28;20073;-80
2023/04/18 12:23:01;;;;;;;5.82;4.35;;;;;;;;;;5040852;28;20109;-81
2023/04/18 12:25:27;;;;;;;5.32;4.05;;;;;;;;;;5039911;28;20037;-81
2023/04/18 12:28:00;;;;;;;6.82;5.25;;;;;;;;;;5041206;28;20029;-81
2023/04/18 12:30:27;;;;;;;6.20;4.65;;;;;;;;;;5037447;28;20025;-81
2023/04/18 12:33:01;;;;;;;6.97;4.63;;;;;;;;;;5039675;28;20503;-81
2023/04/18 12:35:41;;;;;;;6.60;4.20;;;;;;;;;;5040955;28;20053;-81
2023/04/18 12:38:07;;;;;;;5.80;4.57;;;;;;;;;;5033967;28;20443;-80
2023/04/18 12:40:33;;;;;;;8.48;5.22;;;;;;;;;;5032894;28;20063;-80
2023/04/18 12:43:05;;;;;;;7.93;5.25;;;;;;;;;;5015184;28;20583;-80
2023/04/18 12:45:31;;;;;;;4.57;4.07;;;;;;;;;;5015598;28;20117;-80
2023/04/18 12:48:01;;;;;;;7.03;4.00;;;;;;;;;;5015313;28;20036;-80
2023/04/18 12:50:27;;;;;;;;;;;;;;;;;;5015964;28;20104;-80
2023/04/18 12:52:54;;;;;;;6.75;4.97;;;;;;;;;;5019400;28;20636;-80
2023/04/18 12:55:21;;;;;;;6.32;4.45;;;;;;;;;;5035012;28;20028;-80
2023/04/18 12:57:47;;;;;;;5.43;4.07;;;;;;;;;;5034571;28;20040;-79
2023/04/18 13:00:13;;;;;;;7.13;5.22;;;;;;;;;;5034981;28;20692;-80
2023/04/18 13:02:44;;;;;;;7.10;5.18;;;;;;;;;;5026735;28;20030;-80
2023/04/18 13:05:11;;;;;;;4.93;3.80;;;;;;;;;;5035173;28;20025;-80
2023/04/18 13:07:41;;;;;;;6.70;3.92;;;;;;;;;;5035307;28;20388;-80
2023/04/18 13:10:11;;;;;;;4.47;3.85;;;;;;;;;;5018292;28;20028;-80
2023/04/18 13:12:37;;;;;;;;;;;;;;;;;;5034803;28;20688;-80
2023/04/18 13:15:04;;;;;;;6.30;4.55;;;;;;;;;;5036589;28;19916;-80
2023/04/18 13:17:30;;;;;;;5.72;3.28;;;;;;;;;;5038296;28;20542;-80
2023/04/18 13:19:56;;;;;;;6.72;4.25;;;;;;;;;;5037472;28;20365;-80
2023/04/18 13:22:22;;;;;;;6.63;4.18;;;;;;;;;;5032328;28;20506;-80
2023/04/18 13:24:55;;;;;;;4.57;4.10;;;;;;;;;;5028323;28;20032;-80
2023/04/18 13:27:21;;;;;;;6.07;3.97;;;;;;;;;;5037718;28;20393;-80
2023/04/18 13:29:47;;;;;;;5.32;3.47;;;;;;;;;;5034733;28;20029;-80
2023/04/18 13:32:13;;;;;;;3.53;2.90;;;;;;;;;;5031486;28;20152;-80
2023/04/18 13:34:46;;;;;;;7.55;5.45;;;;;;;;;;5031691;28;20045;-80
2023/04/18 13:37:12;;;;;;;7.03;4.63;;;;;;;;;;5029314;28;20025;-80
2023/04/18 13:39:39;;;;;;;10.90;7.43;;;;;;;;;;5030151;28;20514;-80
2023/04/18 13:42:06;;;;;;;10.43;7.97;;;;;;;;;;5033533;28;20100;-80
2023/04/18 13:44:32;;;;;;;9.52;7.30;;;;;;;;;;5026892;28;20418;-80
2023/04/18 13:46:59;;;;;;;11.20;6.18;;;;;;;;;;5026626;28;20033;-80
2023/04/18 13:49:35;;;;;;;9.23;6.45;;;;;;;;;;5023873;28;20112;-80
2023/04/18 13:52:12;;;;;;;10.57;7.25;;;;;;;;;;5028319;28;20017;-80
2023/04/18 13:54:40;;;;;;;9.05;7.03;;;;;;;;;;5033002;28;20425;-80
2023/04/18 13:57:10;;;;;;;7.30;5.43;;;;;;;;;;5032734;28;20037;-80
2023/04/18 13:59:38;;;;;;;7.35;5.82;;;;;;;;;;5033733;28;20052;-81
2023/04/18 14:02:04;;;;;;;8.73;6.63;;;;;;;;;;5033863;28;20017;-80
2023/04/18 14:04:32;;;;;;;9.05;5.97;;;;;;;;;;5029906;28;20484;-80
2023/04/18 14:06:58;;;;;;;9.18;7.35;;;;;;;;;;5031505;28;20029;-81
2023/04/18 14:09:24;;;;;;;9.07;6.60;;;;;;;;;;5031900;28;20029;-80
2023/04/18 14:12:01;;;;;;;12.55;7.40;;;;;;;;;;5033649;28;20086;-81
2023/04/18 14:14:35;;;;;;;11.00;5.93;;;;;;;;;;5029012;28;20167;-80
2023/04/18 14:17:01;;;;;;;10.02;6.68;;;;;;;;;;5022428;28;20037;-81
2023/04/18 14:19:27;;;;;;;8.20;6.32;;;;;;;;;;5033623;28;20104;-80
2023/04/18 14:21:53;;;;;;;10.68;6.55;;;;;;;;;;5033148;28;20025;-81
2023/04/18 14:24:20;;;;;;;10.60;7.32;;;;;;;;;;5033358;28;20029;-80
2023/04/18 14:26:46;;;;;;;10.85;8.45;;;;;;;;;;5032338;28;20075;-80
2023/04/18 14:29:13;;;;;;;10.45;7.47;;;;;;;;;;5016797;28;20407;-80
2023/04/18 14:31:39;;;;;;;7.82;6.15;;;;;;;;;;5030752;28;20052;-80
2023/04/18 14:37:12;;;;;;;7.97;5.65;;;;;;;;;;5033320;28;20040;-80
2023/04/18 14:39:38;;;;;;;6.07;5.10;;;;;;;;;;5037311;28;20029;-80
2023/04/18 14:42:04;;;;;;;9.15;6.45;;;;;;;;;;5027566;28;20531;-80
2023/04/18 14:44:30;;;;;;;10.13;6.50;;;;;;;;;;5036012;28;20028;-80
2023/04/18 14:46:56;;;;;;;9.88;7.35;;;;;;;;;;5033598;28;20412;-80
2023/04/18 14:49:22;;;;;;;8.38;5.57;;;;;;;;;;5036359;28;20116;-80
2023/04/18 14:51:48;;;;;;;7.38;5.20;;;;;;;;;;5026109;28;20060;-80
2023/04/18 14:54:14;;;;;;;10.05;8.05;;;;;;;;;;5029864;28;20022;-80
2023/04/18 14:56:40;;;;;;;8.18;6.78;;;;;;;;;;5036424;28;20053;-80
2023/04/18 14:59:06;;;;;;;8.82;6.50;;;;;;;;;;5028407;28;20033;-81
2023/04/18 15:01:32;;;;;;;9.68;6.43;;;;;;;;;;5032580;28;20528;-81
2023/04/18 15:03:58;;;;;;;11.10;6.75;;;;;;;;;;5036927;28;20030;-81
2023/04/18 15:06:26;;;;;;;10.30;7.10;;;;;;;;;;5027031;28;20033;-80
2023/04/18 15:08:52;;;;;;;11.20;7.35;;;;;;;;;;5018206;28;20381;-81
2023/04/18 15:11:18;;;;;;;7.65;5.75;;;;;;;;;;5036506;28;20629;-80
2023/04/18 15:13:46;;;;;;;5.72;4.38;;;;;;;;;;5035566;28;20025;-80
2023/04/18 15:16:43;;;;;;;6.30;4.65;;;;;;;;;;5032898;28;20033;-80